Long Creek, OR (97856)

11:26 PM PDT on July 23, 2014 (GMT -0700)
Long Creek School (KORLONGC2) Elev 3773 ft | 44.71 °N, 119.10 °W | Change Station

Current weather conditions updated 4 seconds ago

Overcast
Overcast
50.8 °F
Feels Like 50.8 °F
N
4.1
Wind Variable Wind from WSW
Gusts 4.6 mph

Tomorrow is forecast to be Cooler than today.

Today
High -- | Low -- °F
--% Chance of Precip.
Yesterday
High -- | Low -- °F
Precip. -- in
5:32 AM 8:32 PM
Waning Crescent, 7% visible
Pressure 30.16 in
Visibility 10.0 miles
Clouds Overcast 3500 ft
Dew Point 46 °F
Humidity 84%
Rainfall 0.04 in
Snow Depth Not available.
UV 0 out of 12
Pollen 4.30 out of 12
Air Quality Not available.
Flu Activity Not available.
METAR KGCD 240615Z AUTO 28009KT 10SM OVC035 14/08 A3016 RMK AO2 T01350076

More Conditions Fewer Conditions

Pressure 30.16 in
Visibility 10.0 miles
Clouds Overcast 3500 ft
Dew Point 46 °F
Humidity 84%
Rainfall 0.04 in
Snow Depth Not available.
UV 0 out of 12
Pollen 4.30 out of 12
Air Quality Not available.
Flu Activity Not available.
METAR KGCD 240615Z AUTO 28009KT 10SM OVC035 14/08 A3016 RMK AO2 T01350076

More Conditions Fewer Conditions

10-Day Weather Forecast

Almanac

Astronomy

Jul. 23, 2014 Rise Set
Actual Time 5:32 AM PDT 8:32 PM PDT
Civil Twilight 4:58 AM PDT 9:06 PM PDT
Nautical Twilight 4:13 AM PDT 9:50 PM PDT
Astronomical Twilight 3:20 AM PDT 10:43 PM PDT
Moon 2:56 AM PDT (7/23) 6:04 PM PDT (7/23)
Length of Visible Light 16h 08m
Length of Day
14h 59m
Tomorrow will be 2m 3s shorter.
Waning Crescent, 7% of the Moon is Illuminated
Jul 24
Waning Crescent
Jul 26
New
Aug 3
First Quarter
Aug 10
Full
Aug 17
Last Quarter

Yesterday's Extremes

State Highs State Lows

Community

WunderPhotos

Upload Photos

1,736,942 photos uploaded!

Nearby

Snow Depth

Station Depth Elevation
Tipton 0 in 5150 ft
Lucky Strike 0 in 5050 ft
County Line 1 in 4800 ft
Blue Mountain Spring 0 in 5900 ft
Lake Creek R.S. 0 in 5200 ft

Earthquake Activity

City Distance Mag. Time & Date
No recent earthquake activity has been reported nearby.
Minimum magnitude displayed is 2.5.

Coastal Water Temperatures

Place Temperature
No Stations Reporting

Nearby Weather Stations

Station Location Temp. Windchill Dew Point Humidity Wind Precip. Elev Updated Type
Long Creek School, Long Creek, OR 50.8 °F - 46 °F 84% WSW  at  4.1 mph 0.00 in / hr 3773 ft 11:26 PM PDT Rapid Fire
RAWS BOARD CREEK OR, Long Creek, OR 49 °F 48 °F 42 °F 78% WNW  at  4 mph 0.00 in / hr 4770 ft 10:29 PM PDT MADIS
RAWS KEENEY TWO OR, Long Creek, OR 48 °F 48 °F 43 °F 82% NW  at  3 mph 0.00 in / hr 5120 ft 10:28 PM PDT MADIS
Monument High School, Monument, OR 59.2 °F - 44 °F 57% NW  at  3.0 mph - / hr 2011 ft 11:25 PM PDT Normal

Show More Stations Show Fewer Stations